Time;durP1;ratioP1;P1;durP2;ratioP2;P2;SDS_P1;SDS_P2;PMS_P1;PMS_P2;Temp;Humidity;BMP_temperature;BMP_pressure;BME280_temperature;BME280_humidity;BME280_pressure;Samples;Min_cycle;Max_cycle;Signal;HPM_P1;HPM_P2
2023/06/19 00:01:58;;;;;;;8.55;6.75;;;435.70;2355.20;;;;;;5072428;28;20047;-67
2023/06/19 00:04:24;;;;;;;8.32;6.03;;;435.70;2355.20;;;;;;5072731;28;20509;-67
2023/06/19 00:06:50;;;;;;;7.45;6.13;;;435.70;2355.20;;;;;;5072441;28;20036;-65
2023/06/19 00:09:17;;;;;;;8.93;6.35;;;435.60;2355.20;;;;;;5072698;28;20096;-67
2023/06/19 00:11:42;;;;;;;9.70;6.82;;;435.50;2355.20;;;;;;5072708;28;20020;-67
2023/06/19 00:14:08;;;;;;;7.97;6.07;;;435.50;2355.20;;;;;;5072546;28;20039;-63
2023/06/19 00:16:34;;;;;;;8.25;7.32;;;435.60;2355.20;;;;;;5072399;28;20111;-61
2023/06/19 00:18:59;;;;;;;9.38;6.82;;;435.60;2355.20;;;;;;5072390;28;20112;-61
2023/06/19 00:21:25;;;;;;;7.35;5.78;;;435.50;2355.20;;;;;;5072713;28;20031;-61
2023/06/19 00:23:52;;;;;;;8.68;6.03;;;435.40;2355.20;;;;;;5071928;28;20550;-66
2023/06/19 00:26:22;;;;;;;10.05;5.85;;;435.40;2355.20;;;;;;5071882;28;20021;-62
2023/06/19 00:28:52;;;;;;;8.80;6.05;;;435.40;2355.20;;;;;;5071837;28;20024;-62
2023/06/19 00:31:18;;;;;;;8.55;6.53;;;435.30;2355.20;;;;;;5071716;28;20089;-62
2023/06/19 00:33:48;;;;;;;7.25;5.75;;;;;;;;;;5071986;28;20078;-62
2023/06/19 00:36:15;;;;;;;10.93;6.28;;;;;;;;;;5072295;28;20426;-61
2023/06/19 00:38:41;;;;;;;8.10;5.47;;;;;;;;;;5071764;28;20101;-61
2023/06/19 00:41:07;;;;;;;8.90;6.55;;;;;;;;;;5072046;28;20028;-62
2023/06/19 00:43:34;;;;;;;9.05;5.82;;;;;;;;;;5071800;28;20493;-60
2023/06/19 00:46:00;;;;;;;7.22;5.78;;;;;;;;;;5071591;28;20024;-60
2023/06/19 00:48:30;;;;;;;7.55;6.18;;;;;;;;;;5072069;28;20105;-64
2023/06/19 00:50:56;;;;;;;8.57;6.20;;;;;;;;;;5071779;28;20462;-63
2023/06/19 00:53:23;;;;;;;7.85;6.00;;;;;;;;;;5071501;28;20037;-60
2023/06/19 00:55:51;;;;;;;10.98;6.03;;;;;;;;;;5071635;28;20017;-64
2023/06/19 00:58:17;;;;;;;9.05;6.00;;;;;;;;;;5071908;28;20576;-62
2023/06/19 01:00:43;;;;;;;10.05;5.90;;;;;;;;;;5071892;28;20012;-61
2023/06/19 01:03:09;;;;;;;7.70;5.78;;;;;;;;;;5071437;28;20027;-61
2023/06/19 01:05:35;;;;;;;9.52;6.00;;;;;;;;;;5070906;28;20421;-64
2023/06/19 01:08:11;;;;;;;8.85;6.05;;;;;;;;;;5071371;28;20039;-64
2023/06/19 01:10:38;;;;;;;8.70;6.50;;;;;;;;;;5071623;28;20095;-63
2023/06/19 01:13:11;;;;;;;11.35;6.22;;;;;;;;;;5071343;28;20028;-66
2023/06/19 01:15:38;;;;;;;9.63;6.13;;;;;;;;;;5072046;28;20437;-61
2023/06/19 01:18:04;;;;;;;9.52;6.25;;;;;;;;;;5071421;28;20526;-62
2023/06/19 01:20:31;;;;;;;8.73;6.32;;;;;;;;;;5071425;28;20033;-62
2023/06/19 01:22:57;;;;;;;8.55;6.50;;;;;;;;;;5070767;28;20107;-61
2023/06/19 01:25:26;;;;;;;10.07;6.53;;;;;;;;;;5071277;28;20050;-64
2023/06/19 01:27:52;;;;;;;9.75;6.22;;;;;;;;;;5070847;28;20122;-64
2023/06/19 01:30:18;;;;;;;7.47;6.13;;;;;;;;;;5071109;28;20051;-62
2023/06/19 01:32:53;;;;;;;12.45;6.57;;;;;;;;;;5071080;28;20048;-62
2023/06/19 01:35:20;;;;;;;7.60;5.30;;;;;;;;;;5070893;28;20025;-62
2023/06/19 01:37:47;;;;;;;7.78;6.35;;;;;;;;;;5070690;28;20036;-63
2023/06/19 01:40:13;;;;;;;7.25;5.80;;;;;;;;;;5071253;28;20025;-62
2023/06/19 01:42:40;;;;;;;7.85;6.28;;;;;;;;;;5070755;28;20021;-62
2023/06/19 01:45:07;;;;;;;9.07;5.97;;;;;;;;;;5071167;28;20032;-62
2023/06/19 01:47:32;;;;;;;8.70;6.07;;;410.30;2355.20;;;;;;5070723;28;20043;-62
2023/06/19 01:49:58;;;;;;;8.15;6.03;;;410.30;2355.20;;;;;;5070729;28;20471;-62
2023/06/19 01:52:25;;;;;;;6.65;5.90;;;410.20;2355.20;;;;;;5070589;28;20482;-61
2023/06/19 01:54:51;;;;;;;10.40;7.13;;;;;;;;;;5070667;28;20064;-62
2023/06/19 01:57:17;;;;;;;9.73;5.93;;;;;;;;;;5070477;28;20025;-61
2023/06/19 01:59:44;;;;;;;11.30;6.18;;;;;;;;;;5070892;28;20028;-61
2023/06/19 02:02:10;;;;;;;7.53;6.53;;;;;;;;;;5070325;28;20070;-62
2023/06/19 02:04:36;;;;;;;7.88;5.75;;;;;;;;;;5070495;28;20055;-62
2023/06/19 02:07:03;;;;;;;9.57;6.00;;;;;;;;;;5069966;28;20050;-61
2023/06/19 02:09:29;;;;;;;9.88;6.80;;;;;;;;;;5070254;28;20027;-62
2023/06/19 02:11:55;;;;;;;8.80;6.43;;;;;;;;;;5070042;28;20029;-65
2023/06/19 02:14:21;;;;;;;9.52;6.60;;;;;;;;;;5070234;28;20036;-61
2023/06/19 02:16:47;;;;;;;8.85;6.10;;;;;;;;;;5070236;28;20466;-62
2023/06/19 02:19:13;;;;;;;8.25;5.97;;;;;;;;;;5069403;28;20027;-62
2023/06/19 02:21:39;;;;;;;8.65;6.30;;;;;;;;;;5070042;28;20024;-62
2023/06/19 02:24:06;;;;;;;9.25;6.10;;;;;;;;;;5070282;28;20125;-61
2023/06/19 02:26:32;;;;;;;10.18;6.53;;;;;;;;;;5069717;28;20020;-60
2023/06/19 02:28:58;;;;;;;8.20;5.97;;;;;;;;;;5070065;28;20344;-62
2023/06/19 02:31:24;;;;;;;7.28;6.07;;;;;;;;;;5070324;28;20432;-62
2023/06/19 02:33:50;;;;;;;7.78;6.50;;;;;;;;;;5069616;28;20383;-62
2023/06/19 02:36:19;;;;;;;11.30;5.93;;;;;;;;;;5069814;28;20475;-62
2023/06/19 02:38:54;;;;;;;7.93;5.68;;;;;;;;;;5066410;28;20388;-66
2023/06/19 02:41:20;;;;;;;7.85;6.15;;;;;;;;;;5066010;28;20025;-64
2023/06/19 02:43:46;;;;;;;8.73;6.15;;;;;;;;;;5066348;28;20021;-65
2023/06/19 02:46:13;;;;;;;9.32;6.75;;;;;;;;;;5066398;28;20067;-63
2023/06/19 02:48:39;;;;;;;7.57;5.93;;;;;;;;;;5065999;28;20463;-62
2023/06/19 02:51:05;;;;;;;9.73;6.32;;;;;;;;;;5066222;28;20062;-62
2023/06/19 02:53:31;;;;;;;8.88;6.60;;;;;;;;;;5065837;28;20391;-65
2023/06/19 02:55:57;;;;;;;11.43;6.28;;;;;;;;;;5066147;28;20601;-65
2023/06/19 02:58:23;;;;;;;11.43;6.00;;;;;;;;;;5065852;28;20116;-63
2023/06/19 03:00:49;;;;;;;11.65;7.13;;;;;;;;;;5065968;28;20020;-64
2023/06/19 03:03:15;;;;;;;7.78;5.57;;;;;;;;;;5065914;28;20028;-64
2023/06/19 03:05:41;;;;;;;10.05;6.60;;;;;;;;;;5065624;28;20025;-64
2023/06/19 03:08:07;;;;;;;8.75;6.20;;;;;;;;;;5065302;28;20024;-64
2023/06/19 03:10:33;;;;;;;8.38;5.75;;;;;;;;;;5066060;28;20032;-63
2023/06/19 03:12:59;;;;;;;7.78;6.90;;;;;;;;;;5065714;28;20044;-66
2023/06/19 03:15:26;;;;;;;9.18;7.32;;;;;;;;;;5065775;28;20104;-63
2023/06/19 03:17:55;;;;;;;7.30;6.40;;;;;;;;;;5065562;28;20119;-65
2023/06/19 03:20:21;;;;;;;8.90;6.28;;;;;;;;;;5065296;28;20479;-64
2023/06/19 03:22:47;;;;;;;9.38;6.50;;;;;;;;;;5065390;28;20204;-64
2023/06/19 03:25:13;;;;;;;9.55;6.65;;;;;;;;;;5065664;28;20028;-66
2023/06/19 03:27:39;;;;;;;6.90;5.82;;;;;;;;;;5065169;28;20100;-66
2023/06/19 03:30:06;;;;;;;9.50;6.80;;;;;;;;;;5065418;28;20028;-63
2023/06/19 03:32:33;;;;;;;7.88;5.65;;;;;;;;;;5052357;28;20020;-63
2023/06/19 03:34:59;;;;;;;7.25;6.20;;;;;;;;;;5065185;28;20116;-67
2023/06/19 03:37:25;;;;;;;7.40;6.35;;;;;;;;;;5064260;28;20128;-64
2023/06/19 03:39:51;;;;;;;7.72;6.00;;;;;;;;;;5064987;28;20035;-65
2023/06/19 03:42:17;;;;;;;9.13;6.50;;;;;;;;;;5064593;28;20035;-64
2023/06/19 03:44:43;;;;;;;8.60;6.30;;;;;;;;;;5065213;28;20039;-62
2023/06/19 03:47:09;;;;;;;8.63;6.53;;;;;;;;;;5064930;28;20116;-63
2023/06/19 03:49:35;;;;;;;9.13;7.13;;;;;;;;;;5054546;28;20053;-68
2023/06/19 03:52:02;;;;;;;7.05;5.43;;;;;;;;;;5049862;28;20032;-70
2023/06/19 03:54:28;;;;;;;10.25;6.72;;;;;;;;;;5041932;28;20466;-63
2023/06/19 03:56:54;;;;;;;8.88;6.38;;;;;;;;;;5050471;28;20032;-73
2023/06/19 03:59:20;;;;;;;9.43;6.88;;;;;;;;;;5051630;28;20037;-63
2023/06/19 04:01:46;;;;;;;12.00;7.10;;;;;;;;;;5051576;28;20025;-63
2023/06/19 04:04:12;;;;;;;10.18;6.63;;;;;;;;;;5051943;28;20025;-71
2023/06/19 04:06:38;;;;;;;11.23;6.72;;;;;;;;;;5049267;28;20378;-70
2023/06/19 04:09:04;;;;;;;10.23;6.05;;;;;;;;;;5051150;28;20441;-68
2023/06/19 04:11:30;;;;;;;8.73;6.55;;;;;;;;;;5050908;28;20479;-73
2023/06/19 04:13:56;;;;;;;8.10;6.80;;;;;;;;;;5051560;28;20043;-63
2023/06/19 04:16:22;;;;;;;11.02;6.65;;;;;;;;;;5051674;28;20029;-63
2023/06/19 04:18:48;;;;;;;9.60;7.00;;;;;;;;;;5051217;28;20029;-63
2023/06/19 04:21:15;;;;;;;11.30;6.65;;;;;;;;;;5051399;28;20024;-64
2023/06/19 04:23:41;;;;;;;12.40;7.47;;;;;;;;;;5051140;28;20136;-64
2023/06/19 04:26:07;;;;;;;6.97;5.90;;;;;;;;;;5051399;28;20021;-64
2023/06/19 04:28:33;;;;;;;8.00;6.40;;;487.10;2380.80;;;;;;5051117;28;20028;-63
2023/06/19 04:31:02;;;;;;;8.65;6.47;;;;;;;;;;5050651;28;20017;-63
2023/06/19 04:33:29;;;;;;;7.20;6.28;;;589.50;2355.20;;;;;;5051038;28;20112;-64
2023/06/19 04:35:55;;;;;;;13.35;6.32;;;640.70;2048.00;;;;;;5051242;28;20020;-63
2023/06/19 04:38:23;;;;;;;9.45;6.35;;;692.10;1843.20;;;;;;5050396;28;20048;-73
2023/06/19 04:40:53;;;;;;;8.85;6.75;;;742.80;1740.80;;;;;;5051066;28;20029;-64
2023/06/19 04:43:19;;;;;;;9.00;7.53;;;768.60;1638.40;;;;;;5050612;28;20544;-64
2023/06/19 04:45:45;;;;;;;7.85;6.68;;;794.50;1561.60;;;;;;5051616;28;20021;-62
2023/06/19 04:48:11;;;;;;;11.27;7.15;;;819.90;1484.80;;;;;;5054763;28;20026;-64
2023/06/19 04:50:37;;;;;;;9.32;6.72;;;845.20;1459.20;;;;;;5054423;28;20044;-71
2023/06/19 04:56:24;;;;;;;8.30;7.30;;;870.80;1382.40;;;;;;5054672;28;20044;-62
2023/06/19 04:58:51;;;;;;;9.35;7.18;;;871.00;1356.80;;;;;;5054516;28;20033;-64
2023/06/19 05:01:17;;;;;;;7.93;7.10;;;871.30;1356.80;;;;;;5053263;28;20025;-63
2023/06/19 05:03:48;;;;;;;18.52;8.13;;;896.50;1305.60;;;;;;5054503;28;20025;-76
2023/06/19 05:06:14;;;;;;;32.25;10.00;;;896.80;1280.00;;;;;;5054073;28;20037;-68
2023/06/19 05:12:02;;;;;;;9.68;7.53;;;;;;;;;;5054280;28;20056;-62
2023/06/19 05:14:28;;;;;;;12.18;8.23;;;;;;;;;;5054332;28;20031;-61
2023/06/19 05:16:54;;;;;;;9.63;8.73;;;948.10;1203.20;;;;;;5054223;28;20075;-62
2023/06/19 05:19:19;;;;;;;10.50;8.43;;;973.20;1203.20;;;;;;5052215;28;20040;-76
2023/06/19 05:21:45;;;;;;;9.52;7.93;;;;;;;;;;5054191;28;20029;-63
2023/06/19 05:24:11;;;;;;;8.88;7.70;;;973.50;1203.20;;;;;;5053727;28;20021;-62
2023/06/19 05:26:37;;;;;;;11.18;8.43;;;998.60;1203.20;;;;;;5054041;28;20032;-63
2023/06/19 05:29:02;;;;;;;11.82;7.68;;;998.90;1177.60;;;;;;5054039;28;20032;-62
2023/06/19 05:31:28;;;;;;;10.00;8.95;;;999.20;1152.00;;;;;;5053892;28;20067;-62
2023/06/19 05:33:54;;;;;;;17.13;8.85;;;1024.20;1152.00;;;;;;5053642;28;20474;-62
2023/06/19 05:36:19;;;;;;;11.95;8.25;;;1024.70;1126.40;;;;;;5053888;28;20025;-70
2023/06/19 05:42:07;;;;;;;10.20;9.32;;;1024.90;1126.40;;;;;;5053739;28;20486;-69
2023/06/19 05:44:33;;;;;;;12.48;9.23;;;1050.50;1100.80;;;;;;5053667;28;20029;-75
2023/06/19 05:46:59;;;;;;;13.50;8.63;;;1075.40;1100.80;;;;;;5053338;28;20025;-63
2023/06/19 05:49:24;;;;;;;10.35;9.13;;;1075.70;1075.20;;;;;;5053404;28;20033;-62
2023/06/19 05:51:50;;;;;;;9.73;8.85;;;;;;;;;;5053588;28;20432;-72
2023/06/19 05:57:38;;;;;;;13.23;9.52;;;1101.70;1049.60;;;;;;5053324;28;20086;-65
2023/06/19 06:00:05;;;;;;;12.18;8.80;;;1127.10;1049.60;;;;;;5053448;28;20033;-65
2023/06/19 06:02:31;;;;;;;11.40;10.30;;;1152.00;1049.60;;;;;;5053348;28;20025;-65
2023/06/19 06:04:57;;;;;;;10.38;9.57;;;1152.20;1024.00;;;;;;5053546;28;20534;-66
2023/06/19 06:07:22;;;;;;;11.82;10.68;;;1152.50;1024.00;;;;;;5053128;28;20095;-77
2023/06/19 06:09:48;;;;;;;11.93;11.02;;;1152.20;1024.00;;;;;;5052957;28;20370;-64
2023/06/19 06:12:14;;;;;;;11.32;10.23;;;1177.60;1024.00;;;;;;5052779;28;20025;-68
2023/06/19 06:14:41;;;;;;;12.10;11.20;;;1178.20;998.40;;;;;;5053139;28;20040;-71
2023/06/19 06:17:07;;;;;;;11.07;10.15;;;1178.50;998.40;;;;;;5052754;28;20021;-64
2023/06/19 06:19:33;;;;;;;11.40;10.40;;;1203.30;998.40;;;;;;5053186;28;20028;-65
2023/06/19 06:21:58;;;;;;;10.73;9.85;;;1203.60;998.40;;;;;;5052816;28;20481;-65
2023/06/19 06:27:46;;;;;;;10.75;9.93;;;1203.80;998.40;;;;;;5053046;28;20044;-67
2023/06/19 06:30:12;;;;;;;11.48;10.50;;;1228.90;998.40;;;;;;5052880;28;20021;-66
2023/06/19 06:32:38;;;;;;;13.60;11.73;;;1229.00;998.40;;;;;;5053785;28;20029;-66
2023/06/19 06:35:04;;;;;;;12.15;11.25;;;1229.50;972.80;;;;;;5052858;28;20029;-65
2023/06/19 06:37:30;;;;;;;12.27;11.48;;;1229.50;972.80;;;;;;5052177;28;20044;-66
2023/06/19 06:39:56;;;;;;;13.18;11.73;;;1254.50;972.80;;;;;;5052932;28;20151;-66
2023/06/19 06:42:21;;;;;;;11.98;11.13;;;1254.80;972.80;;;;;;5052894;28;20028;-67
2023/06/19 06:44:47;;;;;;;11.77;10.75;;;1254.90;972.80;;;;;;5052793;28;20032;-69
2023/06/19 06:47:13;;;;;;;12.52;11.43;;;1254.90;972.80;;;;;;5052669;28;20442;-77
2023/06/19 06:49:38;;;;;;;12.30;11.50;;;1255.30;972.80;;;;;;5053336;28;20075;-66
2023/06/19 06:52:05;;;;;;;13.65;12.75;;;1280.40;947.20;;;;;;5052837;28;20440;-63
2023/06/19 06:57:52;;;;;;;14.05;12.25;;;1280.70;921.60;;;;;;5052659;28;20506;-65
2023/06/19 07:00:18;;;;;;;12.18;11.27;;;1305.70;921.60;;;;;;5052478;28;20025;-66
2023/06/19 07:02:46;;;;;;;12.65;11.65;;;1305.70;921.60;;;;;;5052683;28;20033;-66
2023/06/19 07:05:12;;;;;;;13.27;12.27;;;1306.20;921.60;;;;;;5052627;28;20036;-73
2023/06/19 07:07:37;;;;;;;12.65;11.77;;;1306.20;896.00;;;;;;5052403;28;20037;-67
2023/06/19 07:10:03;;;;;;;12.27;11.48;;;1331.60;870.40;;;;;;5051971;28;20094;-67
2023/06/19 07:12:29;;;;;;;17.70;16.20;;;1306.50;870.40;;;;;;5048822;28;20411;-67
2023/06/19 07:14:55;;;;;;;20.98;19.10;;;1331.70;870.40;;;;;;5048481;28;20021;-66
2023/06/19 07:17:22;;;;;;;19.77;18.17;;;1356.80;896.00;;;;;;5048773;28;20040;-67
2023/06/19 07:19:47;;;;;;;16.85;15.43;;;1331.40;896.00;;;;;;5048276;28;20029;-66
2023/06/19 07:22:14;;;;;;;13.07;12.02;;;1356.80;896.00;;;;;;5048847;28;20363;-73
2023/06/19 07:24:43;;;;;;;14.13;13.23;;;1356.80;844.80;;;;;;5050277;28;20029;-67
2023/06/19 07:27:08;;;;;;;13.43;12.52;;;1356.80;819.20;;;;;;5052779;28;20029;-67
2023/06/19 07:29:34;;;;;;;12.45;11.63;;;1356.90;819.20;;;;;;5049687;28;20116;-73
2023/06/19 07:32:02;;;;;;;13.57;12.77;;;1356.80;819.20;;;;;;5041841;28;20033;-66
2023/06/19 07:34:28;;;;;;;13.15;12.15;;;1357.40;768.00;;;;;;5052169;28;20075;-67
2023/06/19 07:36:53;;;;;;;12.63;11.93;;;1357.50;768.00;;;;;;5051909;28;20053;-75
2023/06/19 07:39:19;;;;;;;12.88;12.02;;;1357.40;768.00;;;;;;5052173;28;20426;-68
2023/06/19 07:41:45;;;;;;;13.40;12.32;;;1357.50;742.40;;;;;;5052514;28;20458;-66
2023/06/19 07:44:11;;;;;;;13.95;13.05;;;1357.50;742.40;;;;;;5052006;28;20028;-69
2023/06/19 07:46:37;;;;;;;13.05;12.25;;;1382.80;768.00;;;;;;5052220;28;20132;-67
2023/06/19 07:49:03;;;;;;;14.02;13.05;;;1382.90;793.60;;;;;;5052095;28;20024;-66
2023/06/19 07:51:28;;;;;;;14.02;13.02;;;1382.80;742.40;;;;;;5051837;28;20021;-67
2023/06/19 07:53:54;;;;;;;13.18;12.27;;;1382.60;768.00;;;;;;5051718;28;20498;-66
2023/06/19 07:56:20;;;;;;;13.02;12.23;;;1357.70;716.80;;;;;;5051695;28;20025;-68
2023/06/19 07:58:47;;;;;;;13.70;12.80;;;1382.80;742.40;;;;;;5051360;28;20486;-69
2023/06/19 08:01:12;;;;;;;12.82;12.02;;;1357.40;742.40;;;;;;5052319;28;20033;-73
2023/06/19 08:03:38;;;;;;;13.43;12.52;;;1331.60;768.00;;;;;;5052054;28;20378;-67
2023/06/19 08:06:04;;;;;;;15.07;13.82;;;1280.90;819.20;;;;;;5051866;28;20078;-70
2023/06/19 08:08:30;;;;;;;13.02;12.23;;;1280.20;844.80;;;;;;5050964;28;20040;-67
2023/06/19 08:10:55;;;;;;;11.98;11.27;;;1254.40;870.40;;;;;;5050676;28;20033;-64
2023/06/19 08:13:21;;;;;;;13.18;12.27;;;1203.40;896.00;;;;;;5051561;28;20021;-66
2023/06/19 08:15:47;;;;;;;10.45;9.75;;;1127.30;947.20;;;;;;5051625;28;20104;-65
2023/06/19 08:18:12;;;;;;;9.43;8.73;;;1076.10;972.80;;;;;;5051471;28;20033;-75
2023/06/19 08:20:38;;;;;;;9.30;8.52;;;1049.90;1024.00;;;;;;5051646;28;20060;-63
2023/06/19 08:23:04;;;;;;;9.40;8.55;;;1024.30;1049.60;;;;;;5051361;28;20301;-64
2023/06/19 08:25:29;;;;;;;8.98;8.27;;;998.80;1024.00;;;;;;5051523;28;20032;-65
2023/06/19 08:27:55;;;;;;;7.68;7.07;;;973.30;1024.00;;;;;;5051438;28;20112;-63
2023/06/19 08:30:21;;;;;;;10.15;8.50;;;973.10;1075.20;;;;;;5051033;28;20021;-63
2023/06/19 08:32:48;;;;;;;8.98;8.10;;;947.60;1075.20;;;;;;5051641;28;20040;-64
2023/06/19 08:35:15;;;;;;;8.57;7.88;;;947.50;1100.80;;;;;;5051374;28;20017;-64
2023/06/19 08:37:40;;;;;;;8.00;7.38;;;947.50;1075.20;;;;;;5050172;28;20441;-66
2023/06/19 08:40:09;;;;;;;8.40;7.60;;;922.50;1075.20;;;;;;5051361;28;20111;-63
2023/06/19 08:42:35;;;;;;;8.20;7.45;;;922.50;1100.80;;;;;;5051106;28;20420;-63
2023/06/19 08:45:01;;;;;;;8.52;7.53;;;922.40;1100.80;;;;;;5051112;28;20017;-64
2023/06/19 08:47:31;;;;;;;8.13;7.43;;;922.10;1100.80;;;;;;5050831;28;20032;-64
2023/06/19 08:49:58;;;;;;;8.27;7.53;;;922.00;1100.80;;;;;;5051528;28;20454;-66
2023/06/19 08:52:24;;;;;;;7.88;7.07;;;921.80;1100.80;;;;;;5037452;28;20025;-63
2023/06/19 08:54:50;;;;;;;8.27;7.57;;;921.80;1126.40;;;;;;5050565;28;20027;-62
2023/06/19 08:57:16;;;;;;;7.13;6.43;;;896.80;1126.40;;;;;;5050869;28;20359;-63
2023/06/19 08:59:49;;;;;;;8.93;7.65;;;896.20;1126.40;;;;;;5051071;28;20481;-62
2023/06/19 09:02:15;;;;;;;7.55;6.85;;;871.30;1075.20;;;;;;5050555;28;20071;-63
2023/06/19 09:04:40;;;;;;;11.77;7.85;;;896.00;1126.40;;;;;;5050229;28;20037;-63
2023/06/19 09:07:08;;;;;;;7.18;6.47;;;896.20;1100.80;;;;;;5050035;28;20044;-63
2023/06/19 09:09:34;;;;;;;8.13;7.22;;;871.30;1126.40;;;;;;5050930;28;20053;-70
2023/06/19 09:12:04;;;;;;;7.75;6.95;;;871.30;1126.40;;;;;;5049756;28;20523;-73
2023/06/19 09:14:36;;;;;;;7.60;6.88;;;871.20;1126.40;;;;;;5050492;28;20025;-63
2023/06/19 09:17:07;;;;;;;7.32;6.63;;;871.00;1126.40;;;;;;5036975;28;20028;-74
2023/06/19 09:19:34;;;;;;;7.95;7.03;;;871.10;1152.00;;;;;;5050239;28;20033;-62
2023/06/19 09:22:06;;;;;;;7.43;6.72;;;871.10;1126.40;;;;;;5050211;28;20033;-73
2023/06/19 09:24:41;;;;;;;9.70;7.15;;;870.70;1228.80;;;;;;5037634;28;20419;-63
2023/06/19 09:27:06;;;;;;;7.13;6.47;;;870.60;1177.60;;;;;;5050076;28;20479;-64
2023/06/19 09:29:35;;;;;;;8.05;7.35;;;870.80;1100.80;;;;;;5047480;28;20116;-63
2023/06/19 09:32:01;;;;;;;10.35;7.05;;;870.50;1075.20;;;;;;5039708;28;20495;-63
2023/06/19 09:34:27;;;;;;;11.05;7.53;;;845.70;1126.40;;;;;;5050171;28;20120;-63
2023/06/19 09:36:52;;;;;;;8.07;7.28;;;845.70;1152.00;;;;;;5049397;28;20391;-63
2023/06/19 09:39:20;;;;;;;8.90;7.53;;;870.40;1126.40;;;;;;5049978;28;20036;-64
2023/06/19 09:41:50;;;;;;;7.82;7.05;;;870.40;1228.80;;;;;;5050092;28;20107;-63
2023/06/19 09:44:16;;;;;;;8.57;6.22;;;845.50;1228.80;;;;;;5050076;28;20032;-63
2023/06/19 09:46:45;;;;;;;7.72;6.90;;;845.40;1203.20;;;;;;5049330;28;20028;-72
2023/06/19 09:49:13;;;;;;;7.68;6.82;;;845.50;1203.20;;;;;;5049711;28;20356;-63
2023/06/19 09:51:42;;;;;;;8.85;7.00;;;845.50;1203.20;;;;;;5049990;28;20366;-62
2023/06/19 09:54:09;;;;;;;8.98;7.28;;;845.30;1203.20;;;;;;5049690;28;20430;-62
2023/06/19 09:56:37;;;;;;;8.93;6.78;;;845.30;1254.40;;;;;;5049878;28;20025;-62
2023/06/19 09:59:04;;;;;;;7.57;6.88;;;845.30;1254.40;;;;;;5049611;28;20489;-63
2023/06/19 10:01:32;;;;;;;8.15;7.28;;;845.20;1305.60;;;;;;5049512;28;20518;-62
2023/06/19 10:04:08;;;;;;;8.32;7.50;;;845.20;1203.20;;;;;;5049184;28;20028;-63
2023/06/19 10:06:46;;;;;;;12.50;10.57;;;845.20;1254.40;;;;;;5049459;28;20024;-63
2023/06/19 10:09:14;;;;;;;167.98;154.40;;;845.10;1280.00;;;;;;5048950;28;20033;-71
2023/06/19 10:11:52;;;;;;;61.30;55.65;;;844.90;1203.20;;;;;;5049078;28;20029;-62
2023/06/19 10:14:19;;;;;;;16.13;14.13;;;820.10;1203.20;;;;;;5049237;28;20562;-65
2023/06/19 10:16:45;;;;;;;10.45;7.60;;;820.10;1177.60;;;;;;5049483;28;20060;-74
2023/06/19 10:19:20;;;;;;;9.95;8.45;;;819.60;1177.60;;;;;;5048830;28;20110;-65
2023/06/19 10:21:53;;;;;;;17.45;15.82;;;819.70;1254.40;;;;;;5049218;28;20028;-65
2023/06/19 10:24:20;;;;;;;15.00;13.60;;;819.80;1280.00;;;;;;5048038;28;20374;-62
2023/06/19 10:27:02;;;;;;;13.23;11.05;;;819.80;1280.00;;;;;;5049514;28;20036;-77
2023/06/19 10:29:41;;;;;;;9.82;8.32;;;819.70;1356.80;;;;;;5048813;28;20061;-64
2023/06/19 10:32:07;;;;;;;8.95;7.38;;;819.70;1382.40;;;;;;5049496;28;20463;-65
2023/06/19 10:34:36;;;;;;;9.50;8.57;;;819.60;1331.20;;;;;;5048774;28;20028;-64
2023/06/19 10:37:01;;;;;;;10.13;9.23;;;819.80;1280.00;;;;;;5048639;28;20115;-70
2023/06/19 10:39:27;;;;;;;8.95;7.55;;;819.80;1305.60;;;;;;5036247;28;20044;-65
2023/06/19 10:41:53;;;;;;;7.90;7.10;;;819.80;1331.20;;;;;;5049836;28;20433;-64
2023/06/19 10:44:23;;;;;;;8.25;7.45;;;819.70;1331.20;;;;;;5049031;28;20096;-64
2023/06/19 10:46:48;;;;;;;10.63;7.90;;;819.50;1305.60;;;;;;5049054;28;20107;-64
2023/06/19 10:49:14;;;;;;;7.50;6.20;;;819.40;1305.60;;;;;;5035419;28;20024;-70
2023/06/19 10:51:43;;;;;;;19.58;17.52;;;819.20;1356.80;;;;;;5048803;28;20474;-65
2023/06/19 10:54:09;;;;;;;9.32;7.18;;;819.30;1305.60;;;;;;5048571;28;20108;-65
2023/06/19 10:56:35;;;;;;;10.93;10.00;;;794.50;1228.80;;;;;;5048859;28;20059;-69
2023/06/19 10:59:09;;;;;;;11.98;8.05;;;819.20;1228.80;;;;;;5050143;28;20025;-77
2023/06/19 11:01:41;;;;;;;40.55;36.63;;;819.30;1203.20;;;;;;5053015;28;20029;-65
2023/06/19 11:04:09;;;;;;;11.48;7.97;;;819.40;1356.80;;;;;;5053116;28;20025;-62
2023/06/19 11:06:36;;;;;;;20.52;18.42;;;819.40;1305.60;;;;;;5052886;28;20029;-65
2023/06/19 11:09:04;;;;;;;17.45;15.20;;;819.30;1331.20;;;;;;5052789;28;20036;-66
2023/06/19 11:11:45;;;;;;;9.90;8.82;;;819.30;1331.20;;;;;;5052664;28;20068;-74
2023/06/19 11:14:12;;;;;;;19.27;17.60;;;819.40;1305.60;;;;;;5042746;28;20032;-70
2023/06/19 11:16:40;;;;;;;9.95;8.50;;;819.50;1254.40;;;;;;5050300;28;20041;-67
2023/06/19 11:19:08;;;;;;;34.20;31.13;;;794.50;1280.00;;;;;;5053065;28;20025;-65
2023/06/19 11:21:38;;;;;;;30.13;17.45;;;819.20;1331.20;;;;;;5052557;28;20017;-64
2023/06/19 11:24:06;;;;;;;29.38;26.67;;;819.30;1280.00;;;;;;5052337;28;20025;-64
2023/06/19 11:26:39;;;;;;;42.58;38.60;;;819.20;1280.00;;;;;;5049343;28;20025;-63
2023/06/19 11:29:15;;;;;;;17.77;16.08;;;794.40;1305.60;;;;;;5042842;28;20382;-65
2023/06/19 11:31:41;;;;;;;8.52;7.50;;;819.20;1356.80;;;;;;5051279;28;20025;-64
2023/06/19 11:34:06;;;;;;;61.80;57.30;;;794.40;1228.80;;;;;;5049969;28;20028;-66
2023/06/19 11:36:32;;;;;;;25.40;23.00;;;794.40;1305.60;;;;;;5050016;28;20025;-68
2023/06/19 11:38:58;;;;;;;106.35;97.70;;;794.40;1280.00;;;;;;5050423;28;20033;-65
2023/06/19 11:41:29;;;;;;;30.05;27.20;;;794.40;1280.00;;;;;;5050477;28;20071;-67
2023/06/19 11:44:00;;;;;;;9.07;8.07;;;794.50;1305.60;;;;;;5050872;28;20126;-64
2023/06/19 11:46:33;;;;;;;8.93;8.02;;;794.50;1382.40;;;;;;5049958;28;20517;-64
2023/06/19 11:49:17;;;;;;;8.38;7.47;;;819.20;1356.80;;;;;;5050318;28;20037;-65
2023/06/19 11:51:42;;;;;;;9.57;8.68;;;794.00;1305.60;;;;;;5050447;28;20021;-66
2023/06/19 11:54:09;;;;;;;9.00;8.10;;;794.00;1254.40;;;;;;5049730;28;20040;-64
2023/06/19 11:56:36;;;;;;;9.32;8.13;;;794.20;1280.00;;;;;;5050408;28;20033;-74
2023/06/19 11:59:03;;;;;;;10.73;9.73;;;794.30;1280.00;;;;;;5049886;28;20036;-64
2023/06/19 12:01:30;;;;;;;9.45;8.55;;;794.20;1280.00;;;;;;5049837;28;20112;-65
2023/06/19 12:03:56;;;;;;;9.50;7.82;;;794.40;1356.80;;;;;;5049734;28;20032;-63
2023/06/19 12:06:21;;;;;;;9.57;7.97;;;794.40;1408.00;;;;;;5049954;28;20476;-62
2023/06/19 12:08:47;;;;;;;8.98;7.45;;;794.20;1305.60;;;;;;5049424;28;20087;-63
2023/06/19 12:11:13;;;;;;;9.30;7.57;;;794.40;1331.20;;;;;;5049765;28;20037;-73
2023/06/19 12:13:41;;;;;;;10.13;8.07;;;794.40;1331.20;;;;;;5035787;28;20040;-63
2023/06/19 12:16:07;;;;;;;7.72;6.93;;;794.30;1382.40;;;;;;5050523;28;20375;-72
2023/06/19 12:18:33;;;;;;;9.75;8.27;;;793.70;1280.00;;;;;;5049883;28;20049;-63
2023/06/19 12:20:58;;;;;;;10.55;7.75;;;793.90;1280.00;;;;;;5049842;28;20029;-74
2023/06/19 12:23:24;;;;;;;10.60;7.97;;;794.00;1280.00;;;;;;5036464;28;20029;-62
2023/06/19 12:25:50;;;;;;;11.52;8.95;;;793.80;1280.00;;;;;;5049389;28;20041;-71
2023/06/19 12:28:18;;;;;;;10.27;7.78;;;794.00;1305.60;;;;;;5049608;28;20641;-62
2023/06/19 12:30:45;;;;;;;13.27;8.38;;;793.80;1280.00;;;;;;5049951;28;20112;-63
2023/06/19 12:33:11;;;;;;;9.60;7.95;;;793.80;1254.40;;;;;;5048776;28;20040;-62
2023/06/19 12:35:44;;;;;;;11.98;7.75;;;794.00;1305.60;;;;;;5050086;28;20103;-62
2023/06/19 12:38:10;;;;;;;8.75;7.85;;;794.20;1331.20;;;;;;5049193;28;20146;-62
2023/06/19 12:40:39;;;;;;;12.15;8.27;;;794.20;1356.80;;;;;;5049554;28;20406;-63
2023/06/19 12:43:06;;;;;;;8.38;7.50;;;794.20;1280.00;;;;;;5049431;28;20021;-63
2023/06/19 12:45:31;;;;;;;8.65;7.45;;;794.10;1280.00;;;;;;5049476;28;20025;-64
2023/06/19 12:47:57;;;;;;;9.35;8.45;;;794.00;1280.00;;;;;;5046120;28;20160;-62
2023/06/19 12:50:23;;;;;;;15.07;8.50;;;793.80;1280.00;;;;;;5040171;28;20021;-63
2023/06/19 12:52:50;;;;;;;9.40;8.40;;;794.00;1305.60;;;;;;5048630;28;20021;-63
2023/06/19 12:55:16;;;;;;;9.98;8.13;;;793.80;1280.00;;;;;;5049711;28;20599;-67
2023/06/19 12:57:41;;;;;;;8.63;7.45;;;793.90;1280.00;;;;;;5048989;28;20104;-62
2023/06/19 13:00:12;;;;;;;10.05;8.57;;;793.80;1280.00;;;;;;5049017;28;20052;-62
2023/06/19 13:02:39;;;;;;;8.32;7.53;;;794.00;1331.20;;;;;;5049086;28;20063;-64
2023/06/19 13:05:05;;;;;;;8.68;7.78;;;793.90;1280.00;;;;;;5048666;28;20035;-62
2023/06/19 13:07:31;;;;;;;10.95;8.32;;;794.00;1305.60;;;;;;5040276;28;20090;-70
2023/06/19 13:09:57;;;;;;;11.27;8.10;;;794.00;1254.40;;;;;;5044080;28;20024;-62